Samut Prakan, Thailand
Current Conditions -  °F | °C
As of 3:30 AM on Tuesday 23 Dec 2014 (Local Time) from VTBS Reporting Station
Clear Clear  
Wind Chill: 21°   Ceiling: Unl
Heat Index: 21°   Visibility: 5mi
Dew Point: 13°   Wind: 5mph
Humidity: 60%   Direction: 330°NNW
Pressure: 29.91"   Gusts: NA
Location:  13.61°N, 100.61°E
Report Text: VTBS 222030Z 33004KT 8000 NSC 21/13 Q1013 NOSIG
Loading
Personal Weather Stations






























Interactive Weather Map New forecast layout! Learn more

10-Day Weather Forecast

Advertisements
Track Severe Weather on mobile